Sault Ste Marie Airport
CYAM : now visible

Airfield :











YOU CAN JOIN US ON...

 
LOGIN :

Register | Disclaimer

   EN    FR    IT 

 









Legend :    VFR   Marginal VFR   IFR   Intensive IFR   Very Intensive IFR
Visi :
Ceiling :
>= 8 km
>= 3000ft
5 to 8 km
1000 to 3000 ft
1500m to 5 km
500 to 1000 ft
800 to 1500m
200 to 500 ft
< 800m
< 200 ft
Symbols :   Thunderstorms  Fog  Heavy snow  Heavy precipitations  Wind > 20 kt






- Airport Elevation : 630 ft
- IATA code : YAM


CYAM - Sault Ste Marie

CURRENT METAR :
  • 201400Z 09005KT 15SM BKN130 OVC160 15/05 A2997 RMK AC5AC3 SLP154

EXPIRED METARs :
  • 201300Z 05005KT 15SM BKN130 OVC160 13/07 A2997 RMK AC6AC2 SLP155
  • 201200Z 06003KT 20SM SCT140 BKN160 OVC240 12/07 A2997 RMK AC3AC3CI2 SLP153
  • 201100Z 11003KT 20SM SCT150 BKN160 OVC240 10/07 A2997 RMK AC4AC3CI1 SLP152
  • 201000Z 07004KT 12SM FEW086 FEW160 FEW210 BKN230 BKN250 10/06 A2996 RMK AC1AC1CC1CC3CI2 AC TR SLP151

TAF TAF CYAM
Valid from the 20 at 14:00 until the 21 at 02:00 UTC


201340Z 2014/2102 05005KT P6SM BKN130 OVC160
FM201800 18007KT P6SM OVC090
TEMPO 2018/2102 P6SM -SHRA RMK NXT FCST BY 202000Z
CZYZ FIR / North America



MET'MAP, your aeronautical weather chart ! - Copyright ORBIFLY December 2007 - Disclaimer

ORBIFLY MET'MAP TEAM :

Programming & Development : Alexandra Zaïnal
Original concept : Baudouin d'Aumeries
Technical & hardware support : Manuel Goepfert
Assistance : Marc-Olivier Méhu




SOURCES & CREDITS :

   NOAA       Earth
Advisory